sensor_id;sensor_type;location;lat;lon;timestamp;pressure;altitude;pressure_sealevel;temperature;humidity
68508;BME280;55510;49.560;19.090;2023-05-08T00:01:56;97239.69;;;3.56;100.00
68508;BME280;55510;49.560;19.090;2023-05-08T00:04:57;97243.63;;;3.52;100.00
68508;BME280;55510;49.560;19.090;2023-05-08T00:07:58;97237.22;;;3.55;100.00
68508;BME280;55510;49.560;19.090;2023-05-08T00:11:01;97236.41;;;3.54;100.00
68508;BME280;55510;49.560;19.090;2023-05-08T00:14:02;97245.09;;;3.55;100.00
68508;BME280;55510;49.560;19.090;2023-05-08T00:17:03;97241.66;;;3.54;100.00
68508;BME280;55510;49.560;19.090;2023-05-08T00:20:04;97240.00;;;3.53;100.00
68508;BME280;55510;49.560;19.090;2023-05-08T00:23:05;97244.00;;;3.49;100.00
68508;BME280;55510;49.560;19.090;2023-05-08T00:26:05;97241.19;;;3.51;100.00
68508;BME280;55510;49.560;19.090;2023-05-08T00:29:06;97235.75;;;3.52;100.00
68508;BME280;55510;49.560;19.090;2023-05-08T00:32:07;97237.09;;;3.48;100.00
68508;BME280;55510;49.560;19.090;2023-05-08T00:35:08;97244.00;;;3.49;100.00
68508;BME280;55510;49.560;19.090;2023-05-08T00:38:08;97240.72;;;3.47;100.00
68508;BME280;55510;49.560;19.090;2023-05-08T00:41:09;97241.06;;;3.44;100.00
68508;BME280;55510;49.560;19.090;2023-05-08T00:44:10;97237.28;;;3.46;100.00
68508;BME280;55510;49.560;19.090;2023-05-08T00:47:10;97234.81;;;3.45;100.00
68508;BME280;55510;49.560;19.090;2023-05-08T00:50:11;97237.81;;;3.42;100.00
68508;BME280;55510;49.560;19.090;2023-05-08T00:53:13;97236.81;;;3.43;100.00
68508;BME280;55510;49.560;19.090;2023-05-08T00:56:15;97237.81;;;3.42;100.00
68508;BME280;55510;49.560;19.090;2023-05-08T00:59:19;97236.66;;;3.44;100.00
68508;BME280;55510;49.560;19.090;2023-05-08T01:02:20;97245.06;;;3.40;100.00
68508;BME280;55510;49.560;19.090;2023-05-08T01:05:21;97245.53;;;3.43;100.00
68508;BME280;55510;49.560;19.090;2023-05-08T01:08:22;97249.63;;;3.46;100.00
68508;BME280;55510;49.560;19.090;2023-05-08T01:18:16;97254.88;;;3.46;100.00
68508;BME280;55510;49.560;19.090;2023-05-08T01:21:23;97262.78;;;3.46;100.00
68508;BME280;55510;49.560;19.090;2023-05-08T01:28:20;97261.78;;;3.47;100.00
68508;BME280;55510;49.560;19.090;2023-05-08T01:38:29;97270.66;;;3.46;100.00
68508;BME280;55510;49.560;19.090;2023-05-08T01:41:33;97265.31;;;3.39;100.00
68508;BME280;55510;49.560;19.090;2023-05-08T01:44:40;97274.06;;;3.31;100.00
68508;BME280;55510;49.560;19.090;2023-05-08T01:47:49;97270.44;;;3.32;100.00
68508;BME280;55510;49.560;19.090;2023-05-08T01:50:59;97267.97;;;3.31;100.00
68508;BME280;55510;49.560;19.090;2023-05-08T01:54:05;97269.09;;;3.37;100.00
68508;BME280;55510;49.560;19.090;2023-05-08T01:57:09;97266.00;;;3.33;100.00
68508;BME280;55510;49.560;19.090;2023-05-08T02:00:11;97266.81;;;3.33;100.00
68508;BME280;55510;49.560;19.090;2023-05-08T02:03:13;97263.53;;;3.31;100.00
68508;BME280;55510;49.560;19.090;2023-05-08T02:06:19;97273.41;;;3.29;100.00
68508;BME280;55510;49.560;19.090;2023-05-08T02:09:22;97275.22;;;3.29;100.00
68508;BME280;55510;49.560;19.090;2023-05-08T02:12:25;97276.75;;;3.23;100.00
68508;BME280;55510;49.560;19.090;2023-05-08T02:15:28;97276.75;;;3.23;100.00
68508;BME280;55510;49.560;19.090;2023-05-08T02:18:30;97270.84;;;3.21;100.00
68508;BME280;55510;49.560;19.090;2023-05-08T02:21:32;97271.31;;;3.25;100.00
68508;BME280;55510;49.560;19.090;2023-05-08T02:24:34;97277.22;;;3.27;100.00
68508;BME280;55510;49.560;19.090;2023-05-08T02:27:37;97271.44;;;3.31;100.00
68508;BME280;55510;49.560;19.090;2023-05-08T02:30:39;97265.00;;;3.34;100.00
68508;BME280;55510;49.560;19.090;2023-05-08T02:33:41;97272.59;;;3.29;100.00
68508;BME280;55510;49.560;19.090;2023-05-08T02:36:43;97274.22;;;3.30;100.00
68508;BME280;55510;49.560;19.090;2023-05-08T02:39:45;97275.06;;;3.30;100.00
68508;BME280;55510;49.560;19.090;2023-05-08T02:42:46;97272.59;;;3.29;100.00
68508;BME280;55510;49.560;19.090;2023-05-08T02:45:53;97281.31;;;3.29;100.00
68508;BME280;55510;49.560;19.090;2023-05-08T02:49:00;97276.06;;;3.29;100.00
68508;BME280;55510;49.560;19.090;2023-05-08T02:52:12;97274.41;;;3.28;100.00
68508;BME280;55510;49.560;19.090;2023-05-08T03:05:16;97281.88;;;3.16;100.00
68508;BME280;55510;49.560;19.090;2023-05-08T03:08:30;97282.06;;;3.15;100.00
68508;BME280;55510;49.560;19.090;2023-05-08T03:11:40;97275.69;;;3.09;100.00
68508;BME280;55510;49.560;19.090;2023-05-08T03:14:47;97281.78;;;3.10;100.00
68508;BME280;55510;49.560;19.090;2023-05-08T03:17:56;97282.59;;;3.10;100.00
68508;BME280;55510;49.560;19.090;2023-05-08T03:20:58;97276.84;;;3.07;100.00
68508;BME280;55510;49.560;19.090;2023-05-08T03:24:01;97282.44;;;3.12;100.00
68508;BME280;55510;49.560;19.090;2023-05-08T03:27:03;97285.50;;;3.15;100.00
68508;BME280;55510;49.560;19.090;2023-05-08T03:30:06;97281.44;;;3.13;100.00
68508;BME280;55510;49.560;19.090;2023-05-08T03:33:10;97293.25;;;3.17;100.00
68508;BME280;55510;49.560;19.090;2023-05-08T03:36:12;97282.19;;;3.22;100.00
68508;BME280;55510;49.560;19.090;2023-05-08T03:39:13;97286.94;;;3.26;100.00
68508;BME280;55510;49.560;19.090;2023-05-08T03:42:15;97291.19;;;3.27;100.00
68508;BME280;55510;49.560;19.090;2023-05-08T03:45:20;97284.59;;;3.31;100.00
68508;BME280;55510;49.560;19.090;2023-05-08T03:48:22;97289.78;;;3.40;100.00
68508;BME280;55510;49.560;19.090;2023-05-08T03:51:24;97295.53;;;3.43;100.00
68508;BME280;55510;49.560;19.090;2023-05-08T03:54:24;97296.63;;;3.49;100.00
68508;BME280;55510;49.560;19.090;2023-05-08T03:57:32;97302.38;;;3.53;100.00
68508;BME280;55510;49.560;19.090;2023-05-08T04:04:18;97300.03;;;3.58;100.00
68508;BME280;55510;49.560;19.090;2023-05-08T04:07:27;97300.50;;;3.61;100.00
68508;BME280;55510;49.560;19.090;2023-05-08T04:10:31;97305.78;;;3.61;100.00
68508;BME280;55510;49.560;19.090;2023-05-08T04:13:41;97314.03;;;3.58;100.00
68508;BME280;55510;49.560;19.090;2023-05-08T04:16:47;97305.78;;;3.61;100.00
68508;BME280;55510;49.560;19.090;2023-05-08T04:19:57;97317.22;;;3.69;100.00
68508;BME280;55510;49.560;19.090;2023-05-08T04:23:01;97319.50;;;3.72;100.00
68508;BME280;55510;49.560;19.090;2023-05-08T04:26:04;97321.44;;;3.78;100.00
68508;BME280;55510;49.560;19.090;2023-05-08T04:29:06;97322.34;;;3.85;100.00
68508;BME280;55510;49.560;19.090;2023-05-08T04:32:07;97322.00;;;3.88;100.00
68508;BME280;55510;49.560;19.090;2023-05-08T04:35:08;97332.72;;;3.87;100.00
68508;BME280;55510;49.560;19.090;2023-05-08T04:38:09;97338.16;;;3.85;100.00
68508;BME280;55510;49.560;19.090;2023-05-08T04:41:10;97333.44;;;3.96;100.00
68508;BME280;55510;49.560;19.090;2023-05-08T04:44:11;97341.72;;;3.92;100.00
68508;BME280;55510;49.560;19.090;2023-05-08T04:47:13;97337.84;;;4.03;100.00
68508;BME280;55510;49.560;19.090;2023-05-08T04:50:13;97341.22;;;4.12;100.00
68508;BME280;55510;49.560;19.090;2023-05-08T04:53:14;97347.69;;;4.25;99.66
68508;BME280;55510;49.560;19.090;2023-05-08T04:56:15;97345.91;;;4.25;97.79
68508;BME280;55510;49.560;19.090;2023-05-08T04:59:15;97341.63;;;4.39;98.10
68508;BME280;55510;49.560;19.090;2023-05-08T05:02:16;97347.91;;;4.53;97.29
68508;BME280;55510;49.560;19.090;2023-05-08T05:05:17;97350.44;;;4.61;96.30
68508;BME280;55510;49.560;19.090;2023-05-08T05:08:18;97358.34;;;4.61;94.54
68508;BME280;55510;49.560;19.090;2023-05-08T05:11:19;97348.13;;;4.67;94.39
68508;BME280;55510;49.560;19.090;2023-05-08T05:14:21;97351.28;;;4.77;93.41
68508;BME280;55510;49.560;19.090;2023-05-08T05:17:21;97351.38;;;4.84;92.44
68508;BME280;55510;49.560;19.090;2023-05-08T05:20:22;97356.81;;;4.97;92.62
68508;BME280;55510;49.560;19.090;2023-05-08T05:23:23;97355.34;;;5.10;91.50
68508;BME280;55510;49.560;19.090;2023-05-08T05:26:23;97355.06;;;5.19;90.83
68508;BME280;55510;49.560;19.090;2023-05-08T05:29:24;97367.69;;;5.24;91.22
68508;BME280;55510;49.560;19.090;2023-05-08T05:32:25;97359.06;;;5.30;89.70
68508;BME280;55510;49.560;19.090;2023-05-08T05:35:25;97363.22;;;5.40;89.66
68508;BME280;55510;49.560;19.090;2023-05-08T05:38:26;97359.81;;;5.46;89.50
68508;BME280;55510;49.560;19.090;2023-05-08T05:41:27;97367.94;;;5.29;88.64
68508;BME280;55510;49.560;19.090;2023-05-08T05:44:30;97368.50;;;5.40;89.43
68508;BME280;55510;49.560;19.090;2023-05-08T05:47:30;97372.00;;;5.62;89.19
68508;BME280;55510;49.560;19.090;2023-05-08T05:50:31;97371.03;;;5.70;88.64
68508;BME280;55510;49.560;19.090;2023-05-08T05:53:32;97376.84;;;5.80;88.66
68508;BME280;55510;49.560;19.090;2023-05-08T05:56:33;97378.31;;;5.68;87.63
68508;BME280;55510;49.560;19.090;2023-05-08T05:59:33;97380.16;;;5.67;85.71
68508;BME280;55510;49.560;19.090;2023-05-08T06:02:35;97384.53;;;5.75;86.03
68508;BME280;55510;49.560;19.090;2023-05-08T06:05:36;97384.25;;;5.91;86.21
68508;BME280;55510;49.560;19.090;2023-05-08T06:08:37;97389.28;;;5.86;85.56
68508;BME280;55510;49.560;19.090;2023-05-08T06:11:37;97396.09;;;5.95;86.16
68508;BME280;55510;49.560;19.090;2023-05-08T06:14:39;97396.09;;;6.17;84.79
68508;BME280;55510;49.560;19.090;2023-05-08T06:17:40;97404.16;;;6.31;84.18
68508;BME280;55510;49.560;19.090;2023-05-08T06:20:43;97396.25;;;6.37;83.32
68508;BME280;55510;49.560;19.090;2023-05-08T06:23:43;97406.56;;;6.26;83.52
68508;BME280;55510;49.560;19.090;2023-05-08T06:26:44;97391.25;;;6.49;83.36
68508;BME280;55510;49.560;19.090;2023-05-08T06:29:47;97395.91;;;6.69;82.00
68508;BME280;55510;49.560;19.090;2023-05-08T06:32:50;97399.25;;;6.56;80.33
68508;BME280;55510;49.560;19.090;2023-05-08T06:35:50;97402.44;;;6.73;81.06
68508;BME280;55510;49.560;19.090;2023-05-08T06:38:51;97400.13;;;6.63;81.19
68508;BME280;55510;49.560;19.090;2023-05-08T06:41:52;97408.38;;;6.82;80.92
68508;BME280;55510;49.560;19.090;2023-05-08T06:44:53;97405.38;;;6.85;81.70
68508;BME280;55510;49.560;19.090;2023-05-08T06:47:54;97412.06;;;6.88;81.05
68508;BME280;55510;49.560;19.090;2023-05-08T06:50:54;97413.69;;;7.24;80.80
68508;BME280;55510;49.560;19.090;2023-05-08T06:53:56;97412.97;;;7.44;79.24
68508;BME280;55510;49.560;19.090;2023-05-08T06:56:56;97419.97;;;7.65;78.49
68508;BME280;55510;49.560;19.090;2023-05-08T06:59:57;97418.56;;;7.76;78.57
68508;BME280;55510;49.560;19.090;2023-05-08T07:02:58;97422.06;;;7.83;76.69
68508;BME280;55510;49.560;19.090;2023-05-08T07:05:58;97426.41;;;7.49;74.76
68508;BME280;55510;49.560;19.090;2023-05-08T07:08:59;97434.06;;;7.79;77.29
68508;BME280;55510;49.560;19.090;2023-05-08T07:12:00;97432.84;;;7.75;76.48
68508;BME280;55510;49.560;19.090;2023-05-08T07:15:01;97434.19;;;7.50;77.18
68508;BME280;55510;49.560;19.090;2023-05-08T07:18:02;97434.63;;;7.61;79.15
68508;BME280;55510;49.560;19.090;2023-05-08T07:21:03;97439.78;;;7.27;77.36
68508;BME280;55510;49.560;19.090;2023-05-08T07:24:04;97440.41;;;7.29;76.28
68508;BME280;55510;49.560;19.090;2023-05-08T07:27:05;97444.00;;;7.15;78.66
68508;BME280;55510;49.560;19.090;2023-05-08T07:30:06;97445.09;;;7.27;79.39
68508;BME280;55510;49.560;19.090;2023-05-08T07:33:10;97439.03;;;7.47;77.75
68508;BME280;55510;49.560;19.090;2023-05-08T07:36:11;97433.06;;;7.80;77.98
68508;BME280;55510;49.560;19.090;2023-05-08T07:39:12;97434.09;;;7.92;74.87
68508;BME280;55510;49.560;19.090;2023-05-08T07:42:13;97435.59;;;8.15;76.07
68508;BME280;55510;49.560;19.090;2023-05-08T07:45:13;97442.94;;;8.20;75.04
68508;BME280;55510;49.560;19.090;2023-05-08T07:48:14;97447.00;;;8.22;74.67
68508;BME280;55510;49.560;19.090;2023-05-08T07:51:15;97448.66;;;8.37;74.15
68508;BME280;55510;49.560;19.090;2023-05-08T07:54:16;97462.31;;;8.20;75.03
68508;BME280;55510;49.560;19.090;2023-05-08T07:57:16;97461.28;;;8.08;74.39
68508;BME280;55510;49.560;19.090;2023-05-08T08:00:17;97460.03;;;7.97;74.66
68508;BME280;55510;49.560;19.090;2023-05-08T08:03:18;97470.59;;;7.90;74.89
68508;BME280;55510;49.560;19.090;2023-05-08T08:06:19;97473.44;;;7.82;74.54
68508;BME280;55510;49.560;19.090;2023-05-08T08:09:19;97469.81;;;7.41;73.79
68508;BME280;55510;49.560;19.090;2023-05-08T08:12:20;97469.09;;;7.67;74.70
68508;BME280;55510;49.560;19.090;2023-05-08T08:15:21;97473.56;;;8.29;78.49
68508;BME280;55510;49.560;19.090;2023-05-08T08:18:21;97470.53;;;8.59;75.92
68508;BME280;55510;49.560;19.090;2023-05-08T08:21:22;97474.41;;;8.70;73.76
68508;BME280;55510;49.560;19.090;2023-05-08T08:24:23;97462.34;;;8.47;73.17
68508;BME280;55510;49.560;19.090;2023-05-08T08:27:24;97467.03;;;8.38;73.84
68508;BME280;55510;49.560;19.090;2023-05-08T08:30:25;97462.72;;;8.31;73.56
68508;BME280;55510;49.560;19.090;2023-05-08T08:33:30;97473.13;;;8.25;72.42
68508;BME280;55510;49.560;19.090;2023-05-08T08:36:30;97473.78;;;8.61;75.54
68508;BME280;55510;49.560;19.090;2023-05-08T08:39:34;97464.81;;;8.89;74.44
68508;BME280;55510;49.560;19.090;2023-05-08T08:42:35;97466.19;;;9.25;72.84
68508;BME280;55510;49.560;19.090;2023-05-08T08:45:36;97468.13;;;9.57;72.62
68508;BME280;55510;49.560;19.090;2023-05-08T08:48:38;97463.53;;;9.25;68.09
68508;BME280;55510;49.560;19.090;2023-05-08T08:51:49;97460.03;;;9.32;67.81
68508;BME280;55510;49.560;19.090;2023-05-08T08:54:53;97469.44;;;9.34;68.60
68508;BME280;55510;49.560;19.090;2023-05-08T08:58:10;97464.91;;;9.41;68.56
68508;BME280;55510;49.560;19.090;2023-05-08T09:01:15;97465.53;;;9.43;68.18
68508;BME280;55510;49.560;19.090;2023-05-08T09:04:17;97473.84;;;9.61;68.18
68508;BME280;55510;49.560;19.090;2023-05-08T09:07:18;97470.94;;;9.76;68.15
68508;BME280;55510;49.560;19.090;2023-05-08T09:10:19;97482.38;;;9.69;67.08
68508;BME280;55510;49.560;19.090;2023-05-08T09:13:20;97485.13;;;9.49;68.10
68508;BME280;55510;49.560;19.090;2023-05-08T09:16:22;97481.31;;;9.84;68.43
68508;BME280;55510;49.560;19.090;2023-05-08T09:19:24;97487.16;;;10.06;70.10
68508;BME280;55510;49.560;19.090;2023-05-08T09:22:27;97480.56;;;10.09;68.42
68508;BME280;55510;49.560;19.090;2023-05-08T09:25:48;97487.34;;;10.05;66.23
68508;BME280;55510;49.560;19.090;2023-05-08T09:29:06;97483.06;;;10.04;66.38
68508;BME280;55510;49.560;19.090;2023-05-08T09:32:17;97485.78;;;9.90;66.18
68508;BME280;55510;49.560;19.090;2023-05-08T09:35:17;97488.53;;;9.70;66.23
68508;BME280;55510;49.560;19.090;2023-05-08T09:41:31;97485.78;;;10.29;68.38
68508;BME280;55510;49.560;19.090;2023-05-08T09:44:52;97485.56;;;10.30;64.60
68508;BME280;55510;49.560;19.090;2023-05-08T09:47:53;97481.81;;;10.38;64.62
68508;BME280;55510;49.560;19.090;2023-05-08T09:51:04;97480.16;;;10.76;65.91
68508;BME280;55510;49.560;19.090;2023-05-08T09:54:16;97475.41;;;11.03;63.87
68508;BME280;55510;49.560;19.090;2023-05-08T09:57:17;97471.06;;;11.28;62.46
68508;BME280;55510;49.560;19.090;2023-05-08T10:00:18;97479.31;;;11.45;61.75
68508;BME280;55510;49.560;19.090;2023-05-08T10:03:19;97470.19;;;11.53;62.67
68508;BME280;55510;49.560;19.090;2023-05-08T10:06:19;97472.31;;;11.63;62.58
68508;BME280;55510;49.560;19.090;2023-05-08T10:09:20;97473.81;;;11.40;58.65
68508;BME280;55510;49.560;19.090;2023-05-08T10:12:21;97458.50;;;11.16;61.42
68508;BME280;55510;49.560;19.090;2023-05-08T10:15:23;97456.78;;;11.22;60.47
68508;BME280;55510;49.560;19.090;2023-05-08T10:18:25;97465.16;;;11.44;62.71
68508;BME280;55510;49.560;19.090;2023-05-08T10:21:34;97468.94;;;11.74;60.53
68508;BME280;55510;49.560;19.090;2023-05-08T10:24:39;97456.91;;;11.83;57.86
68508;BME280;55510;49.560;19.090;2023-05-08T10:27:56;97466.91;;;11.69;57.68
68508;BME280;55510;49.560;19.090;2023-05-08T10:30:59;97474.78;;;11.64;58.14
68508;BME280;55510;49.560;19.090;2023-05-08T10:34:03;97484.94;;;11.74;58.68
68508;BME280;55510;49.560;19.090;2023-05-08T10:37:08;97470.56;;;11.38;57.52
68508;BME280;55510;49.560;19.090;2023-05-08T10:40:12;97471.97;;;11.59;61.69
68508;BME280;55510;49.560;19.090;2023-05-08T10:43:15;97474.34;;;11.67;58.21
68508;BME280;55510;49.560;19.090;2023-05-08T10:50:00;97456.38;;;11.93;59.54
68508;BME280;55510;49.560;19.090;2023-05-08T10:53:10;97460.31;;;11.90;59.33
68508;BME280;55510;49.560;19.090;2023-05-08T10:56:11;97455.34;;;11.94;58.59
68508;BME280;55510;49.560;19.090;2023-05-08T10:59:18;97454.28;;;12.14;58.31
68508;BME280;55510;49.560;19.090;2023-05-08T11:02:29;97472.94;;;12.14;59.59
68508;BME280;55510;49.560;19.090;2023-05-08T11:05:44;97462.28;;;12.14;58.07
68508;BME280;55510;49.560;19.090;2023-05-08T11:08:48;97466.75;;;12.01;56.10
68508;BME280;55510;49.560;19.090;2023-05-08T11:12:22;97449.50;;;11.85;57.91
68508;BME280;55510;49.560;19.090;2023-05-08T11:15:39;97461.47;;;11.95;58.19
68508;BME280;55510;49.560;19.090;2023-05-08T11:19:15;97454.84;;;12.16;58.22
68508;BME280;55510;49.560;19.090;2023-05-08T11:22:22;97465.78;;;12.26;54.43
68508;BME280;55510;49.560;19.090;2023-05-08T11:25:40;97470.28;;;12.14;56.06
68508;BME280;55510;49.560;19.090;2023-05-08T11:31:52;97465.72;;;12.45;55.73
68508;BME280;55510;49.560;19.090;2023-05-08T11:34:53;97461.44;;;12.44;53.39
68508;BME280;55510;49.560;19.090;2023-05-08T11:41:22;97446.59;;;12.72;54.93
68508;BME280;55510;49.560;19.090;2023-05-08T11:44:24;97448.03;;;12.86;54.76
68508;BME280;55510;49.560;19.090;2023-05-08T11:47:35;97441.38;;;12.77;55.08
68508;BME280;55510;49.560;19.090;2023-05-08T11:50:37;97444.66;;;13.15;55.78
68508;BME280;55510;49.560;19.090;2023-05-08T11:53:38;97453.25;;;13.05;49.99
68508;BME280;55510;49.560;19.090;2023-05-08T11:56:40;97447.31;;;13.15;53.38
68508;BME280;55510;49.560;19.090;2023-05-08T11:59:40;97432.09;;;13.03;53.55
68508;BME280;55510;49.560;19.090;2023-05-08T12:02:43;97447.69;;;13.07;55.89
68508;BME280;55510;49.560;19.090;2023-05-08T12:05:47;97439.72;;;13.24;52.03
68508;BME280;55510;49.560;19.090;2023-05-08T12:08:48;97439.09;;;13.04;51.94
68508;BME280;55510;49.560;19.090;2023-05-08T12:11:55;97444.28;;;13.11;51.80
68508;BME280;55510;49.560;19.090;2023-05-08T12:14:56;97446.13;;;13.23;53.02
68508;BME280;55510;49.560;19.090;2023-05-08T12:18:00;97447.88;;;12.93;51.85
68508;BME280;55510;49.560;19.090;2023-05-08T12:21:02;97448.81;;;13.23;55.04
68508;BME280;55510;49.560;19.090;2023-05-08T12:24:07;97450.66;;;13.34;52.05
68508;BME280;55510;49.560;19.090;2023-05-08T12:27:11;97438.16;;;13.11;51.04
68508;BME280;55510;49.560;19.090;2023-05-08T12:30:13;97455.09;;;13.16;50.51
68508;BME280;55510;49.560;19.090;2023-05-08T12:33:14;97438.94;;;12.99;52.56
68508;BME280;55510;49.560;19.090;2023-05-08T12:36:15;97451.47;;;13.23;53.15
68508;BME280;55510;49.560;19.090;2023-05-08T12:39:17;97444.75;;;13.32;52.09
68508;BME280;55510;49.560;19.090;2023-05-08T12:42:18;97444.63;;;13.51;51.35
68508;BME280;55510;49.560;19.090;2023-05-08T12:45:24;97449.28;;;13.43;51.45
68508;BME280;55510;49.560;19.090;2023-05-08T12:48:25;97446.84;;;13.30;49.48
68508;BME280;55510;49.560;19.090;2023-05-08T12:51:29;97448.47;;;13.43;50.00
68508;BME280;55510;49.560;19.090;2023-05-08T12:54:38;97452.28;;;13.35;48.78
68508;BME280;55510;49.560;19.090;2023-05-08T12:57:39;97459.06;;;13.26;49.67
68508;BME280;55510;49.560;19.090;2023-05-08T13:03:51;97450.09;;;13.08;51.97
68508;BME280;55510;49.560;19.090;2023-05-08T13:06:56;97459.63;;;13.28;49.33
68508;BME280;55510;49.560;19.090;2023-05-08T13:09:58;97458.78;;;13.39;50.23
68508;BME280;55510;49.560;19.090;2023-05-08T13:13:03;97460.28;;;13.59;48.68
68508;BME280;55510;49.560;19.090;2023-05-08T13:16:05;97464.13;;;13.39;48.92
68508;BME280;55510;49.560;19.090;2023-05-08T13:19:06;97456.81;;;13.46;49.54
68508;BME280;55510;49.560;19.090;2023-05-08T13:22:09;97452.16;;;13.54;48.54
68508;BME280;55510;49.560;19.090;2023-05-08T13:25:10;97456.47;;;13.43;51.87
68508;BME280;55510;49.560;19.090;2023-05-08T13:28:11;97468.91;;;13.37;48.08
68508;BME280;55510;49.560;19.090;2023-05-08T13:31:12;97459.63;;;13.04;47.41
68508;BME280;55510;49.560;19.090;2023-05-08T13:34:13;97461.97;;;12.88;48.40
68508;BME280;55510;49.560;19.090;2023-05-08T13:37:14;97463.34;;;12.91;47.77
68508;BME280;55510;49.560;19.090;2023-05-08T13:40:15;97460.22;;;13.06;48.82
68508;BME280;55510;49.560;19.090;2023-05-08T13:43:16;97454.16;;;12.63;49.74
68508;BME280;55510;49.560;19.090;2023-05-08T13:46:17;97462.31;;;13.28;49.60
68508;BME280;55510;49.560;19.090;2023-05-08T13:49:17;97462.75;;;13.48;47.43
68508;BME280;55510;49.560;19.090;2023-05-08T13:52:19;97444.03;;;13.48;46.26
68508;BME280;55510;49.560;19.090;2023-05-08T13:55:19;97455.78;;;12.88;46.32
68508;BME280;55510;49.560;19.090;2023-05-08T13:58:22;97458.50;;;12.33;47.45
68508;BME280;55510;49.560;19.090;2023-05-08T14:01:22;97466.13;;;12.18;50.01
68508;BME280;55510;49.560;19.090;2023-05-08T14:04:23;97467.00;;;12.42;49.28
68508;BME280;55510;49.560;19.090;2023-05-08T14:07:24;97467.75;;;13.09;50.78
68508;BME280;55510;49.560;19.090;2023-05-08T14:10:25;97458.34;;;13.54;47.87
68508;BME280;55510;49.560;19.090;2023-05-08T14:13:26;97463.09;;;13.28;47.02
68508;BME280;55510;49.560;19.090;2023-05-08T14:16:27;97468.59;;;13.10;48.53
68508;BME280;55510;49.560;19.090;2023-05-08T14:19:28;97465.88;;;12.74;47.21
68508;BME280;55510;49.560;19.090;2023-05-08T14:22:29;97472.56;;;12.41;46.77
68508;BME280;55510;49.560;19.090;2023-05-08T14:25:29;97478.03;;;12.03;48.04
68508;BME280;55510;49.560;19.090;2023-05-08T14:28:30;97478.72;;;11.43;49.21
68508;BME280;55510;49.560;19.090;2023-05-08T14:31:31;97474.34;;;11.67;49.48
68508;BME280;55510;49.560;19.090;2023-05-08T14:34:32;97473.22;;;12.24;50.70
68508;BME280;55510;49.560;19.090;2023-05-08T14:37:32;97472.41;;;11.56;48.56
68508;BME280;55510;49.560;19.090;2023-05-08T14:40:33;97476.97;;;11.86;50.50
68508;BME280;55510;49.560;19.090;2023-05-08T14:43:34;97488.28;;;12.18;49.32
68508;BME280;55510;49.560;19.090;2023-05-08T14:46:35;97470.88;;;12.16;47.96
68508;BME280;55510;49.560;19.090;2023-05-08T14:49:35;97480.31;;;12.97;48.04
68508;BME280;55510;49.560;19.090;2023-05-08T14:52:36;97483.31;;;13.36;46.15
68508;BME280;55510;49.560;19.090;2023-05-08T14:55:37;97481.91;;;13.22;45.71
68508;BME280;55510;49.560;19.090;2023-05-08T14:58:40;97496.97;;;12.56;44.82
68508;BME280;55510;49.560;19.090;2023-05-08T15:01:40;97497.84;;;12.38;47.07
68508;BME280;55510;49.560;19.090;2023-05-08T15:04:42;97494.91;;;13.77;44.73
68508;BME280;55510;49.560;19.090;2023-05-08T15:07:45;97493.69;;;14.72;40.75
68508;BME280;55510;49.560;19.090;2023-05-08T15:10:46;97491.28;;;15.05;41.15
68508;BME280;55510;49.560;19.090;2023-05-08T15:13:46;97484.09;;;14.93;41.04
68508;BME280;55510;49.560;19.090;2023-05-08T15:16:50;97489.66;;;15.04;40.28
68508;BME280;55510;49.560;19.090;2023-05-08T15:19:51;97487.19;;;14.85;39.19
68508;BME280;55510;49.560;19.090;2023-05-08T15:22:52;97487.25;;;15.64;39.41
68508;BME280;55510;49.560;19.090;2023-05-08T15:25:53;97495.75;;;16.55;37.02
68508;BME280;55510;49.560;19.090;2023-05-08T15:28:54;97481.09;;;15.46;38.58
68508;BME280;55510;49.560;19.090;2023-05-08T15:31:55;97497.72;;;14.58;40.35
68508;BME280;55510;49.560;19.090;2023-05-08T15:34:56;97501.50;;;13.87;41.45
68508;BME280;55510;49.560;19.090;2023-05-08T15:37:56;97499.00;;;13.20;43.33
68508;BME280;55510;49.560;19.090;2023-05-08T15:40:57;97496.47;;;12.47;44.68
68508;BME280;55510;49.560;19.090;2023-05-08T15:43:58;97500.63;;;12.31;45.48
68508;BME280;55510;49.560;19.090;2023-05-08T15:46:58;97486.91;;;11.97;45.32
68508;BME280;55510;49.560;19.090;2023-05-08T15:49:59;97487.47;;;13.80;42.16
68508;BME280;55510;49.560;19.090;2023-05-08T15:53:00;97482.00;;;15.74;39.04
68508;BME280;55510;49.560;19.090;2023-05-08T15:56:01;97485.28;;;16.86;35.27
68508;BME280;55510;49.560;19.090;2023-05-08T15:59:05;97489.66;;;15.04;37.80
68508;BME280;55510;49.560;19.090;2023-05-08T16:02:06;97485.88;;;16.33;36.12
68508;BME280;55510;49.560;19.090;2023-05-08T16:05:08;97484.66;;;16.46;35.40
68508;BME280;55510;49.560;19.090;2023-05-08T16:08:09;97492.69;;;15.30;37.64
68508;BME280;55510;49.560;19.090;2023-05-08T16:11:12;97488.19;;;14.79;36.41
68508;BME280;55510;49.560;19.090;2023-05-08T16:14:13;97491.16;;;15.56;36.02
68508;BME280;55510;49.560;19.090;2023-05-08T16:17:14;97476.00;;;15.67;36.40
68508;BME280;55510;49.560;19.090;2023-05-08T16:20:14;97479.13;;;16.91;35.29
68508;BME280;55510;49.560;19.090;2023-05-08T16:23:15;97484.13;;;17.09;34.13
68508;BME280;55510;49.560;19.090;2023-05-08T16:26:15;97475.97;;;16.66;33.86
68508;BME280;55510;49.560;19.090;2023-05-08T16:29:16;97477.13;;;15.71;36.98
68508;BME280;55510;49.560;19.090;2023-05-08T16:32:18;97485.69;;;15.68;35.42
68508;BME280;55510;49.560;19.090;2023-05-08T16:35:19;97494.03;;;15.10;36.80
68508;BME280;55510;49.560;19.090;2023-05-08T16:38:20;97490.16;;;14.55;37.57
68508;BME280;55510;49.560;19.090;2023-05-08T16:41:21;97491.34;;;14.76;38.57
68508;BME280;55510;49.560;19.090;2023-05-08T16:44:22;97495.31;;;13.98;39.66
68508;BME280;55510;49.560;19.090;2023-05-08T16:47:22;97498.31;;;12.89;41.88